Waterville, Iowa
Current Conditions -  °F | °C
As of 9:35 AM on Friday 28 Nov 2014 (Local Time) from KPDC Reporting Station
Clear Clear  
Wind Chill: 13°   Ceiling: Unl
Heat Index: 21°   Visibility: 10mi
Dew Point: 10°   Wind: 6mph
Humidity: 62%   Direction: 130°SE
Pressure: 30.07"   Gusts: NA
Location:  43.21°N, 91.3°W
Report Text: KPDC 281535Z AUTO 13005KT 10SM CLR M06/M12 A3007 RMK AO2 T10621124
Loading
Personal Weather Stations






























Interactive Weather Map New forecast layout! Learn more

10-Day Weather Forecast

Advertisements
Track Severe Weather on mobile